sensor_id;sensor_type;location;lat;lon;timestamp;P1;durP1;ratioP1;P2;durP2;ratioP2
7529;SDS011;3806;52.270;10.544;2023-06-10T00:01:19;8.07;;;2.53;;
7529;SDS011;3806;52.270;10.544;2023-06-10T00:03:45;4.75;;;2.30;;
7529;SDS011;3806;52.270;10.544;2023-06-10T00:06:10;9.32;;;3.47;;
7529;SDS011;3806;52.270;10.544;2023-06-10T00:08:36;4.95;;;1.98;;
7529;SDS011;3806;52.270;10.544;2023-06-10T00:11:02;5.00;;;2.50;;
7529;SDS011;3806;52.270;10.544;2023-06-10T00:13:28;5.30;;;2.40;;
7529;SDS011;3806;52.270;10.544;2023-06-10T00:15:53;6.68;;;2.20;;
7529;SDS011;3806;52.270;10.544;2023-06-10T00:18:19;3.33;;;2.03;;
7529;SDS011;3806;52.270;10.544;2023-06-10T00:20:47;5.75;;;2.53;;
7529;SDS011;3806;52.270;10.544;2023-06-10T00:23:13;8.40;;;2.58;;
7529;SDS011;3806;52.270;10.544;2023-06-10T00:25:39;5.72;;;2.85;;
7529;SDS011;3806;52.270;10.544;2023-06-10T00:28:05;5.63;;;2.25;;
7529;SDS011;3806;52.270;10.544;2023-06-10T00:30:30;6.78;;;2.78;;
7529;SDS011;3806;52.270;10.544;2023-06-10T00:32:56;6.07;;;2.05;;
7529;SDS011;3806;52.270;10.544;2023-06-10T00:35:21;7.68;;;3.22;;
7529;SDS011;3806;52.270;10.544;2023-06-10T00:37:47;5.68;;;2.78;;
7529;SDS011;3806;52.270;10.544;2023-06-10T00:40:12;7.38;;;3.25;;
7529;SDS011;3806;52.270;10.544;2023-06-10T00:42:38;9.18;;;2.60;;
7529;SDS011;3806;52.270;10.544;2023-06-10T00:45:04;4.40;;;2.25;;
7529;SDS011;3806;52.270;10.544;2023-06-10T00:47:30;8.52;;;3.05;;
7529;SDS011;3806;52.270;10.544;2023-06-10T00:49:56;6.53;;;2.47;;
7529;SDS011;3806;52.270;10.544;2023-06-10T00:52:22;5.22;;;2.70;;
7529;SDS011;3806;52.270;10.544;2023-06-10T00:54:50;5.70;;;2.50;;
7529;SDS011;3806;52.270;10.544;2023-06-10T00:57:16;5.20;;;2.65;;
7529;SDS011;3806;52.270;10.544;2023-06-10T00:59:41;7.10;;;2.70;;
7529;SDS011;3806;52.270;10.544;2023-06-10T01:02:14;6.97;;;3.05;;
7529;SDS011;3806;52.270;10.544;2023-06-10T01:04:40;5.30;;;2.33;;
7529;SDS011;3806;52.270;10.544;2023-06-10T01:07:15;7.47;;;2.97;;
7529;SDS011;3806;52.270;10.544;2023-06-10T01:10:05;7.05;;;2.58;;
7529;SDS011;3806;52.270;10.544;2023-06-10T01:12:37;4.35;;;2.70;;
7529;SDS011;3806;52.270;10.544;2023-06-10T01:15:22;4.60;;;2.33;;
7529;SDS011;3806;52.270;10.544;2023-06-10T01:17:58;5.00;;;2.70;;
7529;SDS011;3806;52.270;10.544;2023-06-10T01:20:28;5.70;;;3.42;;
7529;SDS011;3806;52.270;10.544;2023-06-10T01:22:54;7.10;;;2.90;;
7529;SDS011;3806;52.270;10.544;2023-06-10T01:25:21;4.13;;;2.97;;
7529;SDS011;3806;52.270;10.544;2023-06-10T01:27:52;8.07;;;3.75;;
7529;SDS011;3806;52.270;10.544;2023-06-10T01:30:20;5.45;;;2.92;;
7529;SDS011;3806;52.270;10.544;2023-06-10T01:32:54;5.35;;;2.42;;
7529;SDS011;3806;52.270;10.544;2023-06-10T01:35:23;9.55;;;3.53;;
7529;SDS011;3806;52.270;10.544;2023-06-10T01:37:51;5.50;;;3.22;;
7529;SDS011;3806;52.270;10.544;2023-06-10T01:40:19;7.25;;;3.20;;
7529;SDS011;3806;52.270;10.544;2023-06-10T01:42:45;7.22;;;3.30;;
7529;SDS011;3806;52.270;10.544;2023-06-10T01:45:10;9.30;;;2.92;;
7529;SDS011;3806;52.270;10.544;2023-06-10T01:47:36;6.40;;;3.30;;
7529;SDS011;3806;52.270;10.544;2023-06-10T01:50:02;8.52;;;2.97;;
7529;SDS011;3806;52.270;10.544;2023-06-10T01:52:27;5.85;;;3.30;;
7529;SDS011;3806;52.270;10.544;2023-06-10T01:54:53;4.72;;;3.20;;
7529;SDS011;3806;52.270;10.544;2023-06-10T01:57:18;6.35;;;3.13;;
7529;SDS011;3806;52.270;10.544;2023-06-10T01:59:44;7.55;;;3.60;;
7529;SDS011;3806;52.270;10.544;2023-06-10T02:02:11;13.10;;;3.20;;
7529;SDS011;3806;52.270;10.544;2023-06-10T02:04:36;5.38;;;3.03;;
7529;SDS011;3806;52.270;10.544;2023-06-10T02:07:02;4.93;;;3.10;;
7529;SDS011;3806;52.270;10.544;2023-06-10T02:09:29;6.53;;;3.20;;
7529;SDS011;3806;52.270;10.544;2023-06-10T02:11:55;9.60;;;4.07;;
7529;SDS011;3806;52.270;10.544;2023-06-10T02:14:20;6.15;;;3.40;;
7529;SDS011;3806;52.270;10.544;2023-06-10T02:16:46;7.60;;;3.08;;
7529;SDS011;3806;52.270;10.544;2023-06-10T02:19:12;9.82;;;2.80;;
7529;SDS011;3806;52.270;10.544;2023-06-10T02:21:39;5.75;;;3.47;;
7529;SDS011;3806;52.270;10.544;2023-06-10T02:24:04;6.97;;;3.17;;
7529;SDS011;3806;52.270;10.544;2023-06-10T02:26:30;6.90;;;3.08;;
7529;SDS011;3806;52.270;10.544;2023-06-10T02:28:56;6.82;;;2.95;;
7529;SDS011;3806;52.270;10.544;2023-06-10T02:31:22;6.53;;;3.58;;
7529;SDS011;3806;52.270;10.544;2023-06-10T02:33:49;5.88;;;3.03;;
7529;SDS011;3806;52.270;10.544;2023-06-10T02:36:14;9.23;;;3.90;;
7529;SDS011;3806;52.270;10.544;2023-06-10T02:38:40;7.32;;;3.60;;
7529;SDS011;3806;52.270;10.544;2023-06-10T02:41:06;6.22;;;3.38;;
7529;SDS011;3806;52.270;10.544;2023-06-10T02:43:32;8.20;;;3.60;;
7529;SDS011;3806;52.270;10.544;2023-06-10T02:45:57;6.38;;;3.00;;
7529;SDS011;3806;52.270;10.544;2023-06-10T02:48:26;8.93;;;3.78;;
7529;SDS011;3806;52.270;10.544;2023-06-10T02:50:52;9.63;;;3.75;;
7529;SDS011;3806;52.270;10.544;2023-06-10T02:53:18;7.30;;;3.22;;
7529;SDS011;3806;52.270;10.544;2023-06-10T02:55:43;8.70;;;4.30;;
7529;SDS011;3806;52.270;10.544;2023-06-10T02:58:09;8.63;;;3.58;;
7529;SDS011;3806;52.270;10.544;2023-06-10T03:00:34;5.03;;;3.60;;
7529;SDS011;3806;52.270;10.544;2023-06-10T03:03:01;7.53;;;3.53;;
7529;SDS011;3806;52.270;10.544;2023-06-10T03:05:28;6.70;;;3.63;;
7529;SDS011;3806;52.270;10.544;2023-06-10T03:07:54;10.50;;;3.42;;
7529;SDS011;3806;52.270;10.544;2023-06-10T03:10:20;9.13;;;4.38;;
7529;SDS011;3806;52.270;10.544;2023-06-10T03:12:45;7.82;;;4.38;;
7529;SDS011;3806;52.270;10.544;2023-06-10T03:15:11;11.63;;;4.63;;
7529;SDS011;3806;52.270;10.544;2023-06-10T03:17:37;10.82;;;5.80;;
7529;SDS011;3806;52.270;10.544;2023-06-10T03:20:03;7.35;;;4.30;;
7529;SDS011;3806;52.270;10.544;2023-06-10T03:22:35;6.00;;;4.32;;
7529;SDS011;3806;52.270;10.544;2023-06-10T03:25:00;6.60;;;4.45;;
7529;SDS011;3806;52.270;10.544;2023-06-10T03:27:26;9.15;;;4.25;;
7529;SDS011;3806;52.270;10.544;2023-06-10T03:29:51;7.30;;;3.88;;
7529;SDS011;3806;52.270;10.544;2023-06-10T03:32:17;7.55;;;4.15;;
7529;SDS011;3806;52.270;10.544;2023-06-10T03:34:43;6.85;;;3.42;;
7529;SDS011;3806;52.270;10.544;2023-06-10T03:37:10;10.23;;;4.57;;
7529;SDS011;3806;52.270;10.544;2023-06-10T03:39:35;9.75;;;3.72;;
7529;SDS011;3806;52.270;10.544;2023-06-10T03:42:01;8.45;;;3.72;;
7529;SDS011;3806;52.270;10.544;2023-06-10T03:44:27;9.05;;;3.70;;
7529;SDS011;3806;52.270;10.544;2023-06-10T03:46:52;12.15;;;3.97;;
7529;SDS011;3806;52.270;10.544;2023-06-10T03:49:19;11.63;;;4.20;;
7529;SDS011;3806;52.270;10.544;2023-06-10T03:51:44;6.55;;;3.78;;
7529;SDS011;3806;52.270;10.544;2023-06-10T03:54:10;7.47;;;3.50;;
7529;SDS011;3806;52.270;10.544;2023-06-10T03:56:35;7.50;;;3.50;;
7529;SDS011;3806;52.270;10.544;2023-06-10T03:59:01;8.30;;;4.18;;
7529;SDS011;3806;52.270;10.544;2023-06-10T04:01:28;8.57;;;4.70;;
7529;SDS011;3806;52.270;10.544;2023-06-10T04:03:54;7.50;;;3.85;;
7529;SDS011;3806;52.270;10.544;2023-06-10T04:06:20;9.13;;;4.00;;
7529;SDS011;3806;52.270;10.544;2023-06-10T04:08:47;7.97;;;4.05;;
7529;SDS011;3806;52.270;10.544;2023-06-10T04:11:13;7.03;;;3.78;;
7529;SDS011;3806;52.270;10.544;2023-06-10T04:13:39;6.30;;;3.55;;
7529;SDS011;3806;52.270;10.544;2023-06-10T04:16:04;7.43;;;4.38;;
7529;SDS011;3806;52.270;10.544;2023-06-10T04:18:30;8.70;;;3.58;;
7529;SDS011;3806;52.270;10.544;2023-06-10T04:20:55;6.15;;;3.20;;
7529;SDS011;3806;52.270;10.544;2023-06-10T04:23:21;9.02;;;3.58;;
7529;SDS011;3806;52.270;10.544;2023-06-10T04:25:47;9.93;;;3.60;;
7529;SDS011;3806;52.270;10.544;2023-06-10T04:28:12;5.13;;;3.28;;
7529;SDS011;3806;52.270;10.544;2023-06-10T04:30:38;5.82;;;3.47;;
7529;SDS011;3806;52.270;10.544;2023-06-10T04:33:04;6.78;;;3.10;;
7529;SDS011;3806;52.270;10.544;2023-06-10T04:35:31;7.72;;;3.40;;
7529;SDS011;3806;52.270;10.544;2023-06-10T04:37:58;8.05;;;3.53;;
7529;SDS011;3806;52.270;10.544;2023-06-10T04:40:25;9.27;;;3.88;;
7529;SDS011;3806;52.270;10.544;2023-06-10T04:42:51;8.75;;;3.28;;
7529;SDS011;3806;52.270;10.544;2023-06-10T04:45:17;10.43;;;3.95;;
7529;SDS011;3806;52.270;10.544;2023-06-10T04:47:44;5.03;;;3.10;;
7529;SDS011;3806;52.270;10.544;2023-06-10T04:50:10;6.00;;;3.63;;
7529;SDS011;3806;52.270;10.544;2023-06-10T04:52:38;6.03;;;3.35;;
7529;SDS011;3806;52.270;10.544;2023-06-10T04:55:06;6.80;;;3.20;;
7529;SDS011;3806;52.270;10.544;2023-06-10T04:57:32;7.28;;;2.90;;
7529;SDS011;3806;52.270;10.544;2023-06-10T04:59:57;7.60;;;3.45;;
7529;SDS011;3806;52.270;10.544;2023-06-10T05:02:23;7.57;;;3.50;;
7529;SDS011;3806;52.270;10.544;2023-06-10T05:04:48;7.75;;;4.03;;
7529;SDS011;3806;52.270;10.544;2023-06-10T05:07:14;6.43;;;3.47;;
7529;SDS011;3806;52.270;10.544;2023-06-10T05:09:39;5.63;;;3.28;;
7529;SDS011;3806;52.270;10.544;2023-06-10T05:12:05;4.72;;;3.05;;
7529;SDS011;3806;52.270;10.544;2023-06-10T05:14:31;7.10;;;4.03;;
7529;SDS011;3806;52.270;10.544;2023-06-10T05:16:57;8.45;;;3.60;;
7529;SDS011;3806;52.270;10.544;2023-06-10T05:19:22;5.53;;;3.53;;
7529;SDS011;3806;52.270;10.544;2023-06-10T05:21:48;7.47;;;3.70;;
7529;SDS011;3806;52.270;10.544;2023-06-10T05:24:14;6.13;;;3.53;;
7529;SDS011;3806;52.270;10.544;2023-06-10T05:26:39;11.00;;;3.28;;
7529;SDS011;3806;52.270;10.544;2023-06-10T05:29:06;9.18;;;4.00;;
7529;SDS011;3806;52.270;10.544;2023-06-10T05:31:32;7.47;;;3.58;;
7529;SDS011;3806;52.270;10.544;2023-06-10T05:33:58;9.73;;;4.35;;
7529;SDS011;3806;52.270;10.544;2023-06-10T05:36:24;6.68;;;3.58;;
7529;SDS011;3806;52.270;10.544;2023-06-10T05:38:52;6.60;;;3.72;;
7529;SDS011;3806;52.270;10.544;2023-06-10T05:41:18;9.05;;;3.83;;
7529;SDS011;3806;52.270;10.544;2023-06-10T05:43:43;8.07;;;3.58;;
7529;SDS011;3806;52.270;10.544;2023-06-10T05:46:09;7.47;;;3.60;;
7529;SDS011;3806;52.270;10.544;2023-06-10T05:48:35;7.95;;;3.65;;
7529;SDS011;3806;52.270;10.544;2023-06-10T05:51:01;9.18;;;3.58;;
7529;SDS011;3806;52.270;10.544;2023-06-10T05:53:27;8.00;;;3.25;;
7529;SDS011;3806;52.270;10.544;2023-06-10T05:55:52;10.02;;;3.03;;
7529;SDS011;3806;52.270;10.544;2023-06-10T05:58:22;6.15;;;3.35;;
7529;SDS011;3806;52.270;10.544;2023-06-10T06:00:48;6.80;;;2.97;;
7529;SDS011;3806;52.270;10.544;2023-06-10T06:03:14;6.82;;;3.50;;
7529;SDS011;3806;52.270;10.544;2023-06-10T06:05:39;5.20;;;2.72;;
7529;SDS011;3806;52.270;10.544;2023-06-10T06:08:05;6.05;;;2.75;;
7529;SDS011;3806;52.270;10.544;2023-06-10T06:10:31;6.40;;;3.38;;
7529;SDS011;3806;52.270;10.544;2023-06-10T06:12:57;8.27;;;3.63;;
7529;SDS011;3806;52.270;10.544;2023-06-10T06:15:22;7.88;;;3.35;;
7529;SDS011;3806;52.270;10.544;2023-06-10T06:17:48;7.88;;;2.90;;
7529;SDS011;3806;52.270;10.544;2023-06-10T06:20:13;6.10;;;3.08;;
7529;SDS011;3806;52.270;10.544;2023-06-10T06:22:39;4.88;;;2.90;;
7529;SDS011;3806;52.270;10.544;2023-06-10T06:25:05;7.57;;;2.72;;
7529;SDS011;3806;52.270;10.544;2023-06-10T06:27:30;8.20;;;2.80;;
7529;SDS011;3806;52.270;10.544;2023-06-10T06:29:56;4.03;;;2.58;;
7529;SDS011;3806;52.270;10.544;2023-06-10T06:32:22;5.32;;;2.80;;
7529;SDS011;3806;52.270;10.544;2023-06-10T06:34:49;8.75;;;4.10;;
7529;SDS011;3806;52.270;10.544;2023-06-10T06:37:19;9.38;;;3.05;;
7529;SDS011;3806;52.270;10.544;2023-06-10T06:39:49;3.90;;;2.80;;
7529;SDS011;3806;52.270;10.544;2023-06-10T06:42:15;6.10;;;2.60;;
7529;SDS011;3806;52.270;10.544;2023-06-10T06:44:43;4.18;;;2.88;;
7529;SDS011;3806;52.270;10.544;2023-06-10T06:47:12;6.68;;;2.80;;
7529;SDS011;3806;52.270;10.544;2023-06-10T06:49:39;6.00;;;3.22;;
7529;SDS011;3806;52.270;10.544;2023-06-10T06:52:05;7.18;;;3.40;;
7529;SDS011;3806;52.270;10.544;2023-06-10T06:54:31;7.75;;;3.42;;
7529;SDS011;3806;52.270;10.544;2023-06-10T06:56:57;7.63;;;2.88;;
7529;SDS011;3806;52.270;10.544;2023-06-10T06:59:23;8.77;;;3.03;;
7529;SDS011;3806;52.270;10.544;2023-06-10T07:01:50;4.72;;;3.28;;
7529;SDS011;3806;52.270;10.544;2023-06-10T07:04:16;7.13;;;3.20;;
7529;SDS011;3806;52.270;10.544;2023-06-10T07:06:42;6.07;;;3.30;;
7529;SDS011;3806;52.270;10.544;2023-06-10T07:09:09;8.13;;;2.90;;
7529;SDS011;3806;52.270;10.544;2023-06-10T07:11:35;7.60;;;3.20;;
7529;SDS011;3806;52.270;10.544;2023-06-10T07:14:01;6.97;;;2.92;;
7529;SDS011;3806;52.270;10.544;2023-06-10T07:16:27;5.10;;;3.22;;
7529;SDS011;3806;52.270;10.544;2023-06-10T07:18:53;8.18;;;3.20;;
7529;SDS011;3806;52.270;10.544;2023-06-10T07:21:19;5.88;;;3.20;;
7529;SDS011;3806;52.270;10.544;2023-06-10T07:23:45;7.22;;;3.40;;
7529;SDS011;3806;52.270;10.544;2023-06-10T07:26:11;9.18;;;3.20;;
7529;SDS011;3806;52.270;10.544;2023-06-10T07:28:41;6.63;;;3.47;;
7529;SDS011;3806;52.270;10.544;2023-06-10T07:31:07;7.30;;;3.80;;
7529;SDS011;3806;52.270;10.544;2023-06-10T07:33:33;8.13;;;3.20;;
7529;SDS011;3806;52.270;10.544;2023-06-10T07:35:59;8.55;;;3.20;;
7529;SDS011;3806;52.270;10.544;2023-06-10T07:38:26;6.50;;;3.45;;
7529;SDS011;3806;52.270;10.544;2023-06-10T07:40:51;6.28;;;2.75;;
7529;SDS011;3806;52.270;10.544;2023-06-10T07:43:17;5.72;;;3.05;;
7529;SDS011;3806;52.270;10.544;2023-06-10T07:45:43;5.07;;;3.17;;
7529;SDS011;3806;52.270;10.544;2023-06-10T07:48:09;8.13;;;3.67;;
7529;SDS011;3806;52.270;10.544;2023-06-10T07:50:34;7.80;;;3.55;;
7529;SDS011;3806;52.270;10.544;2023-06-10T07:53:01;8.45;;;3.35;;
7529;SDS011;3806;52.270;10.544;2023-06-10T07:55:26;6.55;;;2.95;;
7529;SDS011;3806;52.270;10.544;2023-06-10T07:57:52;8.13;;;3.75;;
7529;SDS011;3806;52.270;10.544;2023-06-10T08:00:18;7.50;;;3.20;;
7529;SDS011;3806;52.270;10.544;2023-06-10T08:02:44;8.15;;;3.47;;
7529;SDS011;3806;52.270;10.544;2023-06-10T08:05:10;6.68;;;3.05;;
7529;SDS011;3806;52.270;10.544;2023-06-10T08:07:35;6.07;;;3.60;;
7529;SDS011;3806;52.270;10.544;2023-06-10T08:10:01;7.38;;;3.63;;
7529;SDS011;3806;52.270;10.544;2023-06-10T08:12:29;5.22;;;3.35;;
7529;SDS011;3806;52.270;10.544;2023-06-10T08:14:55;6.07;;;3.20;;
7529;SDS011;3806;52.270;10.544;2023-06-10T08:17:21;4.53;;;2.80;;
7529;SDS011;3806;52.270;10.544;2023-06-10T08:19:46;8.68;;;4.05;;
7529;SDS011;3806;52.270;10.544;2023-06-10T08:22:12;9.88;;;3.70;;
7529;SDS011;3806;52.270;10.544;2023-06-10T08:24:37;10.85;;;4.07;;
7529;SDS011;3806;52.270;10.544;2023-06-10T08:27:03;8.00;;;3.70;;
7529;SDS011;3806;52.270;10.544;2023-06-10T08:29:29;7.53;;;3.40;;
7529;SDS011;3806;52.270;10.544;2023-06-10T08:31:56;6.32;;;3.05;;
7529;SDS011;3806;52.270;10.544;2023-06-10T08:34:21;5.30;;;3.47;;
7529;SDS011;3806;52.270;10.544;2023-06-10T08:36:47;5.60;;;3.05;;
7529;SDS011;3806;52.270;10.544;2023-06-10T08:39:12;7.70;;;3.60;;
7529;SDS011;3806;52.270;10.544;2023-06-10T08:41:40;9.73;;;3.40;;
7529;SDS011;3806;52.270;10.544;2023-06-10T08:44:10;8.38;;;3.67;;
7529;SDS011;3806;52.270;10.544;2023-06-10T08:46:43;5.95;;;2.83;;
7529;SDS011;3806;52.270;10.544;2023-06-10T08:49:10;7.28;;;3.22;;
7529;SDS011;3806;52.270;10.544;2023-06-10T08:51:40;8.20;;;3.67;;
7529;SDS011;3806;52.270;10.544;2023-06-10T08:54:11;6.35;;;3.67;;
7529;SDS011;3806;52.270;10.544;2023-06-10T08:56:43;8.48;;;3.28;;
7529;SDS011;3806;52.270;10.544;2023-06-10T08:59:12;6.00;;;3.20;;
7529;SDS011;3806;52.270;10.544;2023-06-10T09:01:44;6.55;;;3.47;;
7529;SDS011;3806;52.270;10.544;2023-06-10T09:04:09;8.73;;;3.78;;
7529;SDS011;3806;52.270;10.544;2023-06-10T09:06:35;9.02;;;3.92;;
7529;SDS011;3806;52.270;10.544;2023-06-10T09:09:03;4.25;;;3.50;;
7529;SDS011;3806;52.270;10.544;2023-06-10T09:11:30;6.40;;;3.13;;
7529;SDS011;3806;52.270;10.544;2023-06-10T09:13:56;6.82;;;3.90;;
7529;SDS011;3806;52.270;10.544;2023-06-10T09:16:22;8.15;;;3.63;;
7529;SDS011;3806;52.270;10.544;2023-06-10T09:18:51;5.25;;;3.25;;
7529;SDS011;3806;52.270;10.544;2023-06-10T09:21:21;7.97;;;3.65;;
7529;SDS011;3806;52.270;10.544;2023-06-10T09:23:47;6.72;;;4.47;;
7529;SDS011;3806;52.270;10.544;2023-06-10T09:26:13;10.25;;;3.65;;
7529;SDS011;3806;52.270;10.544;2023-06-10T09:28:39;5.15;;;3.47;;
7529;SDS011;3806;52.270;10.544;2023-06-10T09:31:07;6.97;;;3.42;;
7529;SDS011;3806;52.270;10.544;2023-06-10T09:33:36;8.65;;;3.47;;
7529;SDS011;3806;52.270;10.544;2023-06-10T09:36:03;5.57;;;4.03;;
7529;SDS011;3806;52.270;10.544;2023-06-10T09:38:30;7.57;;;3.78;;
7529;SDS011;3806;52.270;10.544;2023-06-10T09:40:57;7.82;;;4.20;;
7529;SDS011;3806;52.270;10.544;2023-06-10T09:43:24;5.90;;;3.90;;
7529;SDS011;3806;52.270;10.544;2023-06-10T09:46:15;6.82;;;3.72;;
7529;SDS011;3806;52.270;10.544;2023-06-10T09:48:43;6.50;;;4.20;;
7529;SDS011;3806;52.270;10.544;2023-06-10T09:51:11;5.13;;;4.03;;
7529;SDS011;3806;52.270;10.544;2023-06-10T09:53:37;8.43;;;3.70;;
7529;SDS011;3806;52.270;10.544;2023-06-10T09:56:03;7.78;;;4.00;;
7529;SDS011;3806;52.270;10.544;2023-06-10T09:58:39;7.00;;;4.18;;
7529;SDS011;3806;52.270;10.544;2023-06-10T10:01:11;8.05;;;4.43;;
7529;SDS011;3806;52.270;10.544;2023-06-10T10:03:48;7.80;;;5.55;;
7529;SDS011;3806;52.270;10.544;2023-06-10T10:06:16;8.57;;;4.18;;
7529;SDS011;3806;52.270;10.544;2023-06-10T10:08:43;5.55;;;4.50;;
7529;SDS011;3806;52.270;10.544;2023-06-10T10:11:09;5.38;;;4.70;;
7529;SDS011;3806;52.270;10.544;2023-06-10T10:13:35;7.07;;;4.43;;
7529;SDS011;3806;52.270;10.544;2023-06-10T10:16:11;9.95;;;4.75;;
7529;SDS011;3806;52.270;10.544;2023-06-10T10:18:47;6.07;;;4.30;;
7529;SDS011;3806;52.270;10.544;2023-06-10T10:21:24;6.97;;;4.75;;
7529;SDS011;3806;52.270;10.544;2023-06-10T10:23:58;5.63;;;4.22;;
7529;SDS011;3806;52.270;10.544;2023-06-10T10:26:31;7.93;;;4.47;;
7529;SDS011;3806;52.270;10.544;2023-06-10T10:28:59;9.80;;;4.32;;
7529;SDS011;3806;52.270;10.544;2023-06-10T10:31:48;6.38;;;4.25;;
7529;SDS011;3806;52.270;10.544;2023-06-10T10:34:20;6.53;;;4.30;;
7529;SDS011;3806;52.270;10.544;2023-06-10T10:36:53;5.97;;;4.43;;
7529;SDS011;3806;52.270;10.544;2023-06-10T10:39:20;7.38;;;4.28;;
7529;SDS011;3806;52.270;10.544;2023-06-10T10:41:47;6.78;;;3.83;;
7529;SDS011;3806;52.270;10.544;2023-06-10T10:44:15;6.70;;;4.47;;
7529;SDS011;3806;52.270;10.544;2023-06-10T10:46:48;5.78;;;3.90;;
7529;SDS011;3806;52.270;10.544;2023-06-10T10:49:15;6.30;;;3.87;;
7529;SDS011;3806;52.270;10.544;2023-06-10T10:51:58;7.93;;;4.10;;
7529;SDS011;3806;52.270;10.544;2023-06-10T10:54:28;7.95;;;4.43;;
7529;SDS011;3806;52.270;10.544;2023-06-10T10:59:56;8.13;;;4.55;;
7529;SDS011;3806;52.270;10.544;2023-06-10T11:04:58;5.45;;;3.80;;
7529;SDS011;3806;52.270;10.544;2023-06-10T11:07:25;7.13;;;4.20;;
7529;SDS011;3806;52.270;10.544;2023-06-10T11:09:57;8.52;;;3.83;;
7529;SDS011;3806;52.270;10.544;2023-06-10T11:12:39;7.75;;;3.88;;
7529;SDS011;3806;52.270;10.544;2023-06-10T11:15:06;7.65;;;4.55;;
7529;SDS011;3806;52.270;10.544;2023-06-10T11:17:32;9.57;;;4.80;;
7529;SDS011;3806;52.270;10.544;2023-06-10T11:20:01;5.43;;;3.78;;
7529;SDS011;3806;52.270;10.544;2023-06-10T11:22:26;6.32;;;4.60;;
7529;SDS011;3806;52.270;10.544;2023-06-10T11:24:52;5.30;;;4.00;;
7529;SDS011;3806;52.270;10.544;2023-06-10T11:27:22;5.55;;;4.15;;
7529;SDS011;3806;52.270;10.544;2023-06-10T11:32:21;6.75;;;4.25;;
7529;SDS011;3806;52.270;10.544;2023-06-10T11:34:52;8.10;;;5.00;;
7529;SDS011;3806;52.270;10.544;2023-06-10T11:37:18;11.07;;;5.07;;
7529;SDS011;3806;52.270;10.544;2023-06-10T11:39:43;7.25;;;4.10;;
7529;SDS011;3806;52.270;10.544;2023-06-10T11:42:09;8.40;;;4.25;;
7529;SDS011;3806;52.270;10.544;2023-06-10T11:44:36;9.40;;;4.60;;
7529;SDS011;3806;52.270;10.544;2023-06-10T11:47:02;6.00;;;3.80;;
7529;SDS011;3806;52.270;10.544;2023-06-10T11:49:28;6.97;;;3.88;;
7529;SDS011;3806;52.270;10.544;2023-06-10T11:51:54;9.82;;;4.60;;
7529;SDS011;3806;52.270;10.544;2023-06-10T11:54:19;6.85;;;4.25;;
7529;SDS011;3806;52.270;10.544;2023-06-10T11:56:47;6.15;;;4.32;;
7529;SDS011;3806;52.270;10.544;2023-06-10T11:59:13;7.20;;;4.60;;
7529;SDS011;3806;52.270;10.544;2023-06-10T12:01:42;5.90;;;4.25;;
7529;SDS011;3806;52.270;10.544;2023-06-10T12:04:10;8.77;;;4.45;;
7529;SDS011;3806;52.270;10.544;2023-06-10T12:06:43;7.72;;;4.63;;
7529;SDS011;3806;52.270;10.544;2023-06-10T12:09:14;6.22;;;4.72;;
7529;SDS011;3806;52.270;10.544;2023-06-10T12:11:40;6.13;;;4.45;;
7529;SDS011;3806;52.270;10.544;2023-06-10T12:14:07;7.38;;;4.63;;
7529;SDS011;3806;52.270;10.544;2023-06-10T12:16:32;5.82;;;4.20;;
7529;SDS011;3806;52.270;10.544;2023-06-10T12:19:02;8.73;;;4.72;;
7529;SDS011;3806;52.270;10.544;2023-06-10T12:21:28;7.38;;;4.25;;
7529;SDS011;3806;52.270;10.544;2023-06-10T12:24:01;5.80;;;4.10;;
7529;SDS011;3806;52.270;10.544;2023-06-10T12:26:38;6.03;;;4.05;;
7529;SDS011;3806;52.270;10.544;2023-06-10T12:29:27;8.68;;;4.85;;
7529;SDS011;3806;52.270;10.544;2023-06-10T12:32:01;6.43;;;4.32;;
7529;SDS011;3806;52.270;10.544;2023-06-10T12:34:33;6.57;;;4.03;;
7529;SDS011;3806;52.270;10.544;2023-06-10T12:37:04;5.55;;;4.00;;
7529;SDS011;3806;52.270;10.544;2023-06-10T12:39:31;6.10;;;4.10;;
7529;SDS011;3806;52.270;10.544;2023-06-10T12:41:58;8.40;;;4.47;;
7529;SDS011;3806;52.270;10.544;2023-06-10T12:44:33;8.48;;;5.00;;
7529;SDS011;3806;52.270;10.544;2023-06-10T12:47:00;8.00;;;4.13;;
7529;SDS011;3806;52.270;10.544;2023-06-10T12:49:32;6.55;;;4.53;;
7529;SDS011;3806;52.270;10.544;2023-06-10T12:51:58;6.70;;;4.40;;
7529;SDS011;3806;52.270;10.544;2023-06-10T12:54:23;5.00;;;4.50;;
7529;SDS011;3806;52.270;10.544;2023-06-10T12:56:49;7.22;;;4.90;;
7529;SDS011;3806;52.270;10.544;2023-06-10T12:59:15;6.43;;;4.15;;
7529;SDS011;3806;52.270;10.544;2023-06-10T13:01:41;5.57;;;4.28;;
7529;SDS011;3806;52.270;10.544;2023-06-10T13:04:07;8.27;;;4.47;;
7529;SDS011;3806;52.270;10.544;2023-06-10T13:06:33;7.38;;;4.30;;
7529;SDS011;3806;52.270;10.544;2023-06-10T13:09:01;6.65;;;4.57;;
7529;SDS011;3806;52.270;10.544;2023-06-10T13:11:28;6.63;;;4.65;;
7529;SDS011;3806;52.270;10.544;2023-06-10T13:13:54;8.30;;;4.80;;
7529;SDS011;3806;52.270;10.544;2023-06-10T13:16:22;6.93;;;4.50;;
7529;SDS011;3806;52.270;10.544;2023-06-10T13:18:52;6.43;;;4.32;;
7529;SDS011;3806;52.270;10.544;2023-06-10T13:21:19;7.82;;;5.40;;
7529;SDS011;3806;52.270;10.544;2023-06-10T13:23:45;6.32;;;4.60;;
7529;SDS011;3806;52.270;10.544;2023-06-10T13:26:13;6.45;;;4.43;;
7529;SDS011;3806;52.270;10.544;2023-06-10T13:28:42;7.65;;;4.22;;
7529;SDS011;3806;52.270;10.544;2023-06-10T13:31:12;5.70;;;3.88;;
7529;SDS011;3806;52.270;10.544;2023-06-10T13:33:44;6.97;;;4.35;;
7529;SDS011;3806;52.270;10.544;2023-06-10T13:36:09;6.35;;;4.03;;
7529;SDS011;3806;52.270;10.544;2023-06-10T13:38:35;5.97;;;4.30;;
7529;SDS011;3806;52.270;10.544;2023-06-10T13:41:01;8.93;;;4.47;;
7529;SDS011;3806;52.270;10.544;2023-06-10T13:43:26;13.38;;;4.90;;
7529;SDS011;3806;52.270;10.544;2023-06-10T13:45:52;5.32;;;3.95;;
7529;SDS011;3806;52.270;10.544;2023-06-10T13:48:17;9.48;;;4.95;;
7529;SDS011;3806;52.270;10.544;2023-06-10T13:50:43;6.25;;;4.75;;
7529;SDS011;3806;52.270;10.544;2023-06-10T13:53:10;6.65;;;4.32;;
7529;SDS011;3806;52.270;10.544;2023-06-10T13:55:36;5.95;;;4.25;;
7529;SDS011;3806;52.270;10.544;2023-06-10T13:58:02;6.68;;;5.07;;
7529;SDS011;3806;52.270;10.544;2023-06-10T14:00:28;11.25;;;4.35;;
7529;SDS011;3806;52.270;10.544;2023-06-10T14:02:54;8.93;;;4.78;;
7529;SDS011;3806;52.270;10.544;2023-06-10T14:05:19;7.53;;;4.70;;
7529;SDS011;3806;52.270;10.544;2023-06-10T14:07:45;8.07;;;4.47;;
7529;SDS011;3806;52.270;10.544;2023-06-10T14:10:10;5.25;;;4.07;;
7529;SDS011;3806;52.270;10.544;2023-06-10T14:12:36;5.50;;;4.68;;
7529;SDS011;3806;52.270;10.544;2023-06-10T14:15:01;7.00;;;4.40;;
7529;SDS011;3806;52.270;10.544;2023-06-10T14:17:27;6.13;;;4.32;;
7529;SDS011;3806;52.270;10.544;2023-06-10T14:19:53;9.00;;;4.85;;
7529;SDS011;3806;52.270;10.544;2023-06-10T14:22:18;4.78;;;4.05;;
7529;SDS011;3806;52.270;10.544;2023-06-10T14:24:44;6.88;;;4.28;;
7529;SDS011;3806;52.270;10.544;2023-06-10T14:27:09;6.47;;;4.38;;
7529;SDS011;3806;52.270;10.544;2023-06-10T14:29:35;8.98;;;4.38;;
7529;SDS011;3806;52.270;10.544;2023-06-10T14:32:00;7.75;;;4.63;;
7529;SDS011;3806;52.270;10.544;2023-06-10T14:34:26;5.88;;;4.75;;
7529;SDS011;3806;52.270;10.544;2023-06-10T14:36:54;8.27;;;4.72;;
7529;SDS011;3806;52.270;10.544;2023-06-10T14:39:20;5.97;;;5.07;;
7529;SDS011;3806;52.270;10.544;2023-06-10T14:41:45;7.13;;;5.90;;
7529;SDS011;3806;52.270;10.544;2023-06-10T14:44:11;6.13;;;4.40;;
7529;SDS011;3806;52.270;10.544;2023-06-10T14:46:36;4.57;;;4.18;;
7529;SDS011;3806;52.270;10.544;2023-06-10T14:49:02;5.57;;;4.43;;
7529;SDS011;3806;52.270;10.544;2023-06-10T14:51:27;7.47;;;4.47;;
7529;SDS011;3806;52.270;10.544;2023-06-10T14:53:53;5.82;;;4.30;;
7529;SDS011;3806;52.270;10.544;2023-06-10T14:56:18;8.50;;;4.70;;
7529;SDS011;3806;52.270;10.544;2023-06-10T14:58:44;6.55;;;4.70;;
7529;SDS011;3806;52.270;10.544;2023-06-10T15:01:09;6.50;;;4.43;;
7529;SDS011;3806;52.270;10.544;2023-06-10T15:03:35;5.70;;;4.68;;
7529;SDS011;3806;52.270;10.544;2023-06-10T15:06:00;4.85;;;4.15;;
7529;SDS011;3806;52.270;10.544;2023-06-10T15:08:26;5.72;;;4.72;;